KBML

Details ICAO KBML
Name BERLIN MUNI
Region United States
Timezone America/New_York (UTC-4.0)
Plans Departing 16
Arriving 49
Stats Elevation 1,161 ft / 354 m (AMSL)
Location 44.574402° -71.176370°
Runways 1
Magnetic Variation 15.183° W
Sunrise 2018-05-26 09:08:09 UTC / 2018-05-26 05:08:09 Local
Sunset 2018-05-27 00:18:16 UTC / 2018-05-26 20:18:16 Local
Advertisement - Login to hide

Runways

ID Width Length Bearing (true) Bearing (mag) Surface Threshold Offset Overrun Length
18 100 ft / 30 m 5,204 ft / 1,586 m 164.25° 179.43° Asphalt 0 ft / 0 m 0 ft / 0 m
36 100 ft / 30 m 5,204 ft / 1,586 m 344.25° 359.43° Asphalt 0 ft / 0 m 0 ft / 0 m

Map

Weather


0- 5 10 15 20 25 30 35+ Temperature / ° C

Clouds and Precipitation
Forecast for 2018-05-26 18:00 UTC. Updated 4 hours ago

Ground ~20,000 ft ~40,000 ft Winds

METAR

KBML 262052Z AUTO VRB03KT 10SM CLR 21/17 A2986 RMK AO2 SLP109 60003 T02110167 51014

TAF

Not found

Frequencies

Recorded 135.17 MHz ASOS
Unicom 122.70 MHz CTAF/UNICOM
Warning: Do not use this data for real-world aviation or navigation. No guarantee of current accuracy is given.